sensor_id;sensor_type;location;lat;lon;timestamp;P1;durP1;ratioP1;P2;durP2;ratioP2
68438;SDS011;55421;51.600;5.718;2024-02-21T00:01:23;17.60;;;6.70;;
68438;SDS011;55421;51.600;5.718;2024-02-21T00:03:50;17.60;;;6.30;;
68438;SDS011;55421;51.600;5.718;2024-02-21T00:06:17;17.40;;;6.60;;
68438;SDS011;55421;51.600;5.718;2024-02-21T00:08:43;15.30;;;6.20;;
68438;SDS011;55421;51.600;5.718;2024-02-21T00:11:10;18.20;;;6.40;;
68438;SDS011;55421;51.600;5.718;2024-02-21T00:13:36;15.80;;;6.50;;
68438;SDS011;55421;51.600;5.718;2024-02-21T00:16:03;13.50;;;5.40;;
68438;SDS011;55421;51.600;5.718;2024-02-21T00:18:29;13.80;;;6.70;;
68438;SDS011;55421;51.600;5.718;2024-02-21T00:20:56;17.80;;;7.10;;
68438;SDS011;55421;51.600;5.718;2024-02-21T00:23:22;15.50;;;7.50;;
68438;SDS011;55421;51.600;5.718;2024-02-21T00:25:49;17.10;;;6.40;;
68438;SDS011;55421;51.600;5.718;2024-02-21T00:28:16;16.90;;;6.50;;
68438;SDS011;55421;51.600;5.718;2024-02-21T00:30:42;18.60;;;6.80;;
68438;SDS011;55421;51.600;5.718;2024-02-21T00:33:09;15.80;;;5.80;;
68438;SDS011;55421;51.600;5.718;2024-02-21T00:35:36;14.50;;;6.60;;
68438;SDS011;55421;51.600;5.718;2024-02-21T00:38:02;20.90;;;8.10;;
68438;SDS011;55421;51.600;5.718;2024-02-21T00:40:29;18.00;;;7.00;;
68438;SDS011;55421;51.600;5.718;2024-02-21T00:42:56;14.00;;;5.90;;
68438;SDS011;55421;51.600;5.718;2024-02-21T00:45:22;14.20;;;6.90;;
68438;SDS011;55421;51.600;5.718;2024-02-21T00:47:49;18.00;;;6.80;;
68438;SDS011;55421;51.600;5.718;2024-02-21T00:50:16;16.00;;;6.80;;
68438;SDS011;55421;51.600;5.718;2024-02-21T00:52:42;18.30;;;6.50;;
68438;SDS011;55421;51.600;5.718;2024-02-21T00:55:09;14.70;;;6.30;;
68438;SDS011;55421;51.600;5.718;2024-02-21T00:57:36;15.30;;;5.80;;
68438;SDS011;55421;51.600;5.718;2024-02-21T01:00:04;16.50;;;6.80;;
68438;SDS011;55421;51.600;5.718;2024-02-21T01:02:31;21.40;;;7.40;;
68438;SDS011;55421;51.600;5.718;2024-02-21T01:04:57;15.30;;;6.30;;
68438;SDS011;55421;51.600;5.718;2024-02-21T01:07:24;12.90;;;6.20;;
68438;SDS011;55421;51.600;5.718;2024-02-21T01:09:51;15.80;;;6.70;;
68438;SDS011;55421;51.600;5.718;2024-02-21T01:12:18;14.40;;;6.40;;
68438;SDS011;55421;51.600;5.718;2024-02-21T01:14:44;15.40;;;6.50;;
68438;SDS011;55421;51.600;5.718;2024-02-21T01:17:13;20.80;;;7.10;;
68438;SDS011;55421;51.600;5.718;2024-02-21T01:19:39;17.30;;;5.90;;
68438;SDS011;55421;51.600;5.718;2024-02-21T01:22:06;16.80;;;6.40;;
68438;SDS011;55421;51.600;5.718;2024-02-21T01:24:33;17.30;;;6.60;;
68438;SDS011;55421;51.600;5.718;2024-02-21T01:26:59;18.60;;;6.50;;
68438;SDS011;55421;51.600;5.718;2024-02-21T01:29:26;17.30;;;6.00;;
68438;SDS011;55421;51.600;5.718;2024-02-21T01:31:52;15.30;;;5.90;;
68438;SDS011;55421;51.600;5.718;2024-02-21T01:34:19;23.60;;;7.00;;
68438;SDS011;55421;51.600;5.718;2024-02-21T01:36:45;13.20;;;5.60;;
68438;SDS011;55421;51.600;5.718;2024-02-21T01:39:12;15.00;;;6.30;;
68438;SDS011;55421;51.600;5.718;2024-02-21T01:41:38;15.70;;;6.20;;
68438;SDS011;55421;51.600;5.718;2024-02-21T01:44:05;13.00;;;6.30;;
68438;SDS011;55421;51.600;5.718;2024-02-21T01:46:31;20.50;;;7.00;;
68438;SDS011;55421;51.600;5.718;2024-02-21T01:48:58;13.00;;;5.80;;
68438;SDS011;55421;51.600;5.718;2024-02-21T01:51:25;16.50;;;5.20;;
68438;SDS011;55421;51.600;5.718;2024-02-21T01:53:53;14.10;;;5.00;;
68438;SDS011;55421;51.600;5.718;2024-02-21T01:56:22;14.90;;;6.10;;
68438;SDS011;55421;51.600;5.718;2024-02-21T01:58:49;11.30;;;5.00;;
68438;SDS011;55421;51.600;5.718;2024-02-21T02:01:17;12.40;;;5.90;;
68438;SDS011;55421;51.600;5.718;2024-02-21T02:03:47;12.90;;;5.50;;
68438;SDS011;55421;51.600;5.718;2024-02-21T02:06:14;12.30;;;5.20;;
68438;SDS011;55421;51.600;5.718;2024-02-21T02:08:40;17.30;;;5.10;;
68438;SDS011;55421;51.600;5.718;2024-02-21T02:11:08;13.50;;;5.10;;
68438;SDS011;55421;51.600;5.718;2024-02-21T02:13:35;13.90;;;4.90;;
68438;SDS011;55421;51.600;5.718;2024-02-21T02:16:02;14.60;;;5.50;;
68438;SDS011;55421;51.600;5.718;2024-02-21T02:18:28;13.30;;;4.70;;
68438;SDS011;55421;51.600;5.718;2024-02-21T02:20:55;12.30;;;4.90;;
68438;SDS011;55421;51.600;5.718;2024-02-21T02:23:25;13.00;;;5.30;;
68438;SDS011;55421;51.600;5.718;2024-02-21T02:26:01;9.30;;;4.10;;
68438;SDS011;55421;51.600;5.718;2024-02-21T02:28:27;16.50;;;4.80;;
68438;SDS011;55421;51.600;5.718;2024-02-21T02:30:54;12.70;;;4.50;;
68438;SDS011;55421;51.600;5.718;2024-02-21T02:33:21;10.40;;;4.30;;
68438;SDS011;55421;51.600;5.718;2024-02-21T02:35:47;7.70;;;3.90;;
68438;SDS011;55421;51.600;5.718;2024-02-21T02:38:14;7.60;;;4.20;;
68438;SDS011;55421;51.600;5.718;2024-02-21T02:43:13;11.00;;;4.20;;
68438;SDS011;55421;51.600;5.718;2024-02-21T02:45:39;9.70;;;4.80;;
68438;SDS011;55421;51.600;5.718;2024-02-21T02:48:06;11.00;;;4.40;;
68438;SDS011;55421;51.600;5.718;2024-02-21T02:50:33;10.10;;;3.70;;
68438;SDS011;55421;51.600;5.718;2024-02-21T02:53:00;10.90;;;4.40;;
68438;SDS011;55421;51.600;5.718;2024-02-21T02:55:26;10.80;;;4.50;;
68438;SDS011;55421;51.600;5.718;2024-02-21T02:57:53;10.50;;;3.90;;
68438;SDS011;55421;51.600;5.718;2024-02-21T03:00:20;12.60;;;4.50;;
68438;SDS011;55421;51.600;5.718;2024-02-21T03:02:48;8.80;;;4.10;;
68438;SDS011;55421;51.600;5.718;2024-02-21T03:05:18;11.10;;;4.20;;
68438;SDS011;55421;51.600;5.718;2024-02-21T03:07:46;13.00;;;4.40;;
68438;SDS011;55421;51.600;5.718;2024-02-21T03:10:14;7.30;;;4.00;;
68438;SDS011;55421;51.600;5.718;2024-02-21T03:12:42;10.10;;;3.80;;
68438;SDS011;55421;51.600;5.718;2024-02-21T03:15:09;6.30;;;3.20;;
68438;SDS011;55421;51.600;5.718;2024-02-21T03:17:36;10.60;;;4.00;;
68438;SDS011;55421;51.600;5.718;2024-02-21T03:20:03;9.40;;;4.00;;
68438;SDS011;55421;51.600;5.718;2024-02-21T03:22:36;7.00;;;3.90;;
68438;SDS011;55421;51.600;5.718;2024-02-21T03:25:04;10.00;;;4.00;;
68438;SDS011;55421;51.600;5.718;2024-02-21T03:27:31;9.70;;;4.60;;
68438;SDS011;55421;51.600;5.718;2024-02-21T03:29:58;7.70;;;3.30;;
68438;SDS011;55421;51.600;5.718;2024-02-21T03:32:24;9.00;;;3.90;;
68438;SDS011;55421;51.600;5.718;2024-02-21T03:34:51;8.50;;;3.60;;
68438;SDS011;55421;51.600;5.718;2024-02-21T03:37:18;10.50;;;4.30;;
68438;SDS011;55421;51.600;5.718;2024-02-21T03:39:44;7.70;;;3.50;;
68438;SDS011;55421;51.600;5.718;2024-02-21T03:42:11;9.10;;;3.90;;
68438;SDS011;55421;51.600;5.718;2024-02-21T03:44:38;12.60;;;3.80;;
68438;SDS011;55421;51.600;5.718;2024-02-21T03:47:04;11.20;;;3.90;;
68438;SDS011;55421;51.600;5.718;2024-02-21T03:49:31;10.50;;;3.90;;
68438;SDS011;55421;51.600;5.718;2024-02-21T03:51:58;13.20;;;4.10;;
68438;SDS011;55421;51.600;5.718;2024-02-21T03:54:24;8.80;;;3.30;;
68438;SDS011;55421;51.600;5.718;2024-02-21T03:56:50;6.60;;;3.40;;
68438;SDS011;55421;51.600;5.718;2024-02-21T03:59:17;10.00;;;3.90;;
68438;SDS011;55421;51.600;5.718;2024-02-21T04:01:44;9.60;;;3.60;;
68438;SDS011;55421;51.600;5.718;2024-02-21T04:04:11;6.90;;;3.80;;
68438;SDS011;55421;51.600;5.718;2024-02-21T04:06:46;8.50;;;3.70;;
68438;SDS011;55421;51.600;5.718;2024-02-21T04:09:16;8.30;;;3.70;;
68438;SDS011;55421;51.600;5.718;2024-02-21T04:11:43;11.80;;;3.80;;
68438;SDS011;55421;51.600;5.718;2024-02-21T04:14:10;8.60;;;3.40;;
68438;SDS011;55421;51.600;5.718;2024-02-21T04:16:37;6.30;;;3.90;;
68438;SDS011;55421;51.600;5.718;2024-02-21T04:19:05;7.70;;;3.60;;
68438;SDS011;55421;51.600;5.718;2024-02-21T04:21:31;8.30;;;4.00;;
68438;SDS011;55421;51.600;5.718;2024-02-21T04:23:58;9.30;;;3.40;;
68438;SDS011;55421;51.600;5.718;2024-02-21T04:26:25;10.00;;;3.70;;
68438;SDS011;55421;51.600;5.718;2024-02-21T04:28:51;9.80;;;3.90;;
68438;SDS011;55421;51.600;5.718;2024-02-21T04:31:18;9.80;;;3.60;;
68438;SDS011;55421;51.600;5.718;2024-02-21T04:33:44;8.80;;;3.90;;
68438;SDS011;55421;51.600;5.718;2024-02-21T04:36:11;8.50;;;4.00;;
68438;SDS011;55421;51.600;5.718;2024-02-21T04:38:37;7.50;;;3.40;;
68438;SDS011;55421;51.600;5.718;2024-02-21T04:41:05;10.50;;;3.90;;
68438;SDS011;55421;51.600;5.718;2024-02-21T04:43:31;10.50;;;4.40;;
68438;SDS011;55421;51.600;5.718;2024-02-21T04:45:58;9.50;;;4.00;;
68438;SDS011;55421;51.600;5.718;2024-02-21T04:48:25;13.00;;;4.70;;
68438;SDS011;55421;51.600;5.718;2024-02-21T04:50:52;14.40;;;4.20;;
68438;SDS011;55421;51.600;5.718;2024-02-21T04:53:18;11.70;;;5.00;;
68438;SDS011;55421;51.600;5.718;2024-02-21T04:55:45;11.20;;;4.70;;
68438;SDS011;55421;51.600;5.718;2024-02-21T04:58:12;10.40;;;5.30;;
68438;SDS011;55421;51.600;5.718;2024-02-21T05:00:38;14.90;;;5.70;;
68438;SDS011;55421;51.600;5.718;2024-02-21T05:03:05;14.10;;;5.70;;
68438;SDS011;55421;51.600;5.718;2024-02-21T05:05:32;13.30;;;5.60;;
68438;SDS011;55421;51.600;5.718;2024-02-21T05:07:59;12.10;;;6.10;;
68438;SDS011;55421;51.600;5.718;2024-02-21T05:10:25;14.90;;;6.00;;
68438;SDS011;55421;51.600;5.718;2024-02-21T05:12:52;14.90;;;6.20;;
68438;SDS011;55421;51.600;5.718;2024-02-21T05:15:18;17.00;;;5.80;;
68438;SDS011;55421;51.600;5.718;2024-02-21T05:17:45;14.90;;;6.30;;
68438;SDS011;55421;51.600;5.718;2024-02-21T05:20:11;11.10;;;5.50;;
68438;SDS011;55421;51.600;5.718;2024-02-21T05:22:38;12.80;;;6.30;;
68438;SDS011;55421;51.600;5.718;2024-02-21T05:25:07;13.90;;;6.00;;
68438;SDS011;55421;51.600;5.718;2024-02-21T05:27:33;12.30;;;5.90;;
68438;SDS011;55421;51.600;5.718;2024-02-21T05:30:02;11.00;;;5.80;;
68438;SDS011;55421;51.600;5.718;2024-02-21T05:32:29;15.40;;;6.50;;
68438;SDS011;55421;51.600;5.718;2024-02-21T05:34:56;11.20;;;5.60;;
68438;SDS011;55421;51.600;5.718;2024-02-21T05:37:24;12.90;;;6.20;;
68438;SDS011;55421;51.600;5.718;2024-02-21T05:39:50;13.50;;;6.10;;
68438;SDS011;55421;51.600;5.718;2024-02-21T05:42:17;17.00;;;6.30;;
68438;SDS011;55421;51.600;5.718;2024-02-21T05:44:44;13.00;;;5.80;;
68438;SDS011;55421;51.600;5.718;2024-02-21T05:47:10;16.90;;;6.50;;
68438;SDS011;55421;51.600;5.718;2024-02-21T05:49:39;13.80;;;5.60;;
68438;SDS011;55421;51.600;5.718;2024-02-21T05:52:06;14.70;;;6.00;;
68438;SDS011;55421;51.600;5.718;2024-02-21T05:54:32;14.40;;;6.90;;
68438;SDS011;55421;51.600;5.718;2024-02-21T05:56:59;16.90;;;6.80;;
68438;SDS011;55421;51.600;5.718;2024-02-21T05:59:25;13.30;;;6.80;;
68438;SDS011;55421;51.600;5.718;2024-02-21T06:01:58;16.80;;;6.60;;
68438;SDS011;55421;51.600;5.718;2024-02-21T06:04:25;13.60;;;6.20;;
68438;SDS011;55421;51.600;5.718;2024-02-21T06:06:52;14.40;;;6.40;;
68438;SDS011;55421;51.600;5.718;2024-02-21T06:09:18;15.70;;;5.70;;
68438;SDS011;55421;51.600;5.718;2024-02-21T06:11:45;11.80;;;5.70;;
68438;SDS011;55421;51.600;5.718;2024-02-21T06:14:12;12.70;;;6.30;;
68438;SDS011;55421;51.600;5.718;2024-02-21T06:16:39;13.10;;;6.10;;
68438;SDS011;55421;51.600;5.718;2024-02-21T06:19:05;16.40;;;6.20;;
68438;SDS011;55421;51.600;5.718;2024-02-21T06:21:32;14.50;;;5.70;;
68438;SDS011;55421;51.600;5.718;2024-02-21T06:23:58;15.90;;;7.30;;
68438;SDS011;55421;51.600;5.718;2024-02-21T06:26:25;13.00;;;6.10;;
68438;SDS011;55421;51.600;5.718;2024-02-21T06:28:52;12.10;;;5.70;;
68438;SDS011;55421;51.600;5.718;2024-02-21T06:31:18;14.50;;;5.90;;
68438;SDS011;55421;51.600;5.718;2024-02-21T06:33:45;15.20;;;6.40;;
68438;SDS011;55421;51.600;5.718;2024-02-21T06:36:11;15.80;;;6.40;;
68438;SDS011;55421;51.600;5.718;2024-02-21T06:38:37;10.70;;;5.80;;
68438;SDS011;55421;51.600;5.718;2024-02-21T06:41:04;14.10;;;6.00;;
68438;SDS011;55421;51.600;5.718;2024-02-21T06:43:30;14.50;;;5.60;;
68438;SDS011;55421;51.600;5.718;2024-02-21T06:45:58;11.60;;;5.60;;
68438;SDS011;55421;51.600;5.718;2024-02-21T06:48:25;15.40;;;6.20;;
68438;SDS011;55421;51.600;5.718;2024-02-21T06:50:51;12.10;;;6.30;;
68438;SDS011;55421;51.600;5.718;2024-02-21T06:53:17;9.30;;;5.10;;
68438;SDS011;55421;51.600;5.718;2024-02-21T06:55:44;13.50;;;5.90;;
68438;SDS011;55421;51.600;5.718;2024-02-21T06:58:10;17.10;;;6.80;;
68438;SDS011;55421;51.600;5.718;2024-02-21T07:00:39;11.80;;;5.80;;
68438;SDS011;55421;51.600;5.718;2024-02-21T07:03:06;15.40;;;6.60;;
68438;SDS011;55421;51.600;5.718;2024-02-21T07:05:33;12.20;;;5.90;;
68438;SDS011;55421;51.600;5.718;2024-02-21T07:07:59;12.40;;;5.90;;
68438;SDS011;55421;51.600;5.718;2024-02-21T07:10:26;14.90;;;5.70;;
68438;SDS011;55421;51.600;5.718;2024-02-21T07:12:55;11.90;;;6.30;;
68438;SDS011;55421;51.600;5.718;2024-02-21T07:15:21;13.90;;;6.10;;
68438;SDS011;55421;51.600;5.718;2024-02-21T07:17:48;14.10;;;6.70;;
68438;SDS011;55421;51.600;5.718;2024-02-21T07:20:14;14.70;;;6.50;;
68438;SDS011;55421;51.600;5.718;2024-02-21T07:22:41;14.20;;;5.90;;
68438;SDS011;55421;51.600;5.718;2024-02-21T07:25:08;15.10;;;6.20;;
68438;SDS011;55421;51.600;5.718;2024-02-21T07:27:34;13.80;;;6.40;;
68438;SDS011;55421;51.600;5.718;2024-02-21T07:30:01;12.20;;;5.70;;
68438;SDS011;55421;51.600;5.718;2024-02-21T07:32:28;15.50;;;6.50;;
68438;SDS011;55421;51.600;5.718;2024-02-21T07:34:54;12.40;;;6.40;;
68438;SDS011;55421;51.600;5.718;2024-02-21T07:37:21;13.60;;;6.30;;
68438;SDS011;55421;51.600;5.718;2024-02-21T07:39:47;12.70;;;6.40;;
68438;SDS011;55421;51.600;5.718;2024-02-21T07:42:14;12.60;;;6.50;;
68438;SDS011;55421;51.600;5.718;2024-02-21T07:44:41;15.00;;;6.60;;
68438;SDS011;55421;51.600;5.718;2024-02-21T07:47:08;15.30;;;6.30;;
68438;SDS011;55421;51.600;5.718;2024-02-21T07:49:43;15.40;;;6.80;;
68438;SDS011;55421;51.600;5.718;2024-02-21T07:52:11;17.70;;;6.80;;
68438;SDS011;55421;51.600;5.718;2024-02-21T07:54:37;14.30;;;6.40;;
68438;SDS011;55421;51.600;5.718;2024-02-21T07:57:04;16.80;;;6.90;;
68438;SDS011;55421;51.600;5.718;2024-02-21T07:59:32;18.10;;;7.40;;
68438;SDS011;55421;51.600;5.718;2024-02-21T08:01:58;12.00;;;6.50;;
68438;SDS011;55421;51.600;5.718;2024-02-21T08:04:25;16.40;;;6.80;;
68438;SDS011;55421;51.600;5.718;2024-02-21T08:06:53;13.10;;;6.00;;
68438;SDS011;55421;51.600;5.718;2024-02-21T08:09:20;12.80;;;5.80;;
68438;SDS011;55421;51.600;5.718;2024-02-21T08:11:47;12.00;;;5.60;;
68438;SDS011;55421;51.600;5.718;2024-02-21T08:14:13;12.20;;;6.10;;
68438;SDS011;55421;51.600;5.718;2024-02-21T08:16:42;12.50;;;5.80;;
68438;SDS011;55421;51.600;5.718;2024-02-21T08:19:10;17.20;;;5.90;;
68438;SDS011;55421;51.600;5.718;2024-02-21T08:21:37;15.70;;;7.10;;
68438;SDS011;55421;51.600;5.718;2024-02-21T08:24:04;11.60;;;6.40;;
68438;SDS011;55421;51.600;5.718;2024-02-21T08:26:32;9.90;;;5.80;;
68438;SDS011;55421;51.600;5.718;2024-02-21T08:28:58;11.10;;;5.50;;
68438;SDS011;55421;51.600;5.718;2024-02-21T08:31:29;11.10;;;5.80;;
68438;SDS011;55421;51.600;5.718;2024-02-21T08:33:58;11.80;;;5.50;;
68438;SDS011;55421;51.600;5.718;2024-02-21T08:36:32;10.60;;;5.50;;
68438;SDS011;55421;51.600;5.718;2024-02-21T08:39:01;10.80;;;5.00;;
68438;SDS011;55421;51.600;5.718;2024-02-21T08:41:32;9.30;;;5.20;;
68438;SDS011;55421;51.600;5.718;2024-02-21T08:44:01;9.50;;;4.70;;
68438;SDS011;55421;51.600;5.718;2024-02-21T08:46:28;6.90;;;4.60;;
68438;SDS011;55421;51.600;5.718;2024-02-21T08:48:55;8.20;;;4.10;;
68438;SDS011;55421;51.600;5.718;2024-02-21T08:51:21;6.80;;;4.80;;
68438;SDS011;55421;51.600;5.718;2024-02-21T08:53:48;6.50;;;4.30;;
68438;SDS011;55421;51.600;5.718;2024-02-21T08:56:16;9.40;;;5.10;;
68438;SDS011;55421;51.600;5.718;2024-02-21T08:58:43;6.90;;;4.50;;
68438;SDS011;55421;51.600;5.718;2024-02-21T09:01:09;9.00;;;5.30;;
68438;SDS011;55421;51.600;5.718;2024-02-21T09:03:39;11.50;;;5.40;;
68438;SDS011;55421;51.600;5.718;2024-02-21T09:06:06;9.20;;;5.00;;
68438;SDS011;55421;51.600;5.718;2024-02-21T09:08:34;8.40;;;4.80;;
68438;SDS011;55421;51.600;5.718;2024-02-21T09:11:00;9.80;;;4.80;;
68438;SDS011;55421;51.600;5.718;2024-02-21T09:13:27;13.40;;;5.30;;
68438;SDS011;55421;51.600;5.718;2024-02-21T09:15:54;11.10;;;5.20;;
68438;SDS011;55421;51.600;5.718;2024-02-21T09:18:24;8.90;;;4.80;;
68438;SDS011;55421;51.600;5.718;2024-02-21T09:20:51;7.10;;;4.60;;
68438;SDS011;55421;51.600;5.718;2024-02-21T09:23:18;8.20;;;4.40;;
68438;SDS011;55421;51.600;5.718;2024-02-21T09:25:47;11.30;;;4.80;;
68438;SDS011;55421;51.600;5.718;2024-02-21T09:28:13;9.80;;;3.70;;
68438;SDS011;55421;51.600;5.718;2024-02-21T09:30:40;6.10;;;3.70;;
68438;SDS011;55421;51.600;5.718;2024-02-21T09:33:07;8.80;;;4.50;;
68438;SDS011;55421;51.600;5.718;2024-02-21T09:35:33;11.90;;;5.50;;
68438;SDS011;55421;51.600;5.718;2024-02-21T09:38:01;7.20;;;4.00;;
68438;SDS011;55421;51.600;5.718;2024-02-21T09:40:27;7.40;;;4.20;;
68438;SDS011;55421;51.600;5.718;2024-02-21T09:43:04;6.90;;;4.10;;
68438;SDS011;55421;51.600;5.718;2024-02-21T09:45:34;7.80;;;4.00;;
68438;SDS011;55421;51.600;5.718;2024-02-21T09:50:38;6.00;;;4.30;;
68438;SDS011;55421;51.600;5.718;2024-02-21T09:53:11;7.40;;;4.80;;
68438;SDS011;55421;51.600;5.718;2024-02-21T09:55:40;8.00;;;4.50;;
68438;SDS011;55421;51.600;5.718;2024-02-21T09:58:09;11.50;;;4.60;;
68438;SDS011;55421;51.600;5.718;2024-02-21T10:00:36;9.50;;;4.80;;
68438;SDS011;55421;51.600;5.718;2024-02-21T10:03:03;9.20;;;5.00;;
68438;SDS011;55421;51.600;5.718;2024-02-21T10:08:04;7.70;;;4.70;;
68438;SDS011;55421;51.600;5.718;2024-02-21T10:10:45;6.70;;;4.50;;
68438;SDS011;55421;51.600;5.718;2024-02-21T10:13:29;8.10;;;5.00;;
68438;SDS011;55421;51.600;5.718;2024-02-21T10:16:02;8.20;;;4.90;;
68438;SDS011;55421;51.600;5.718;2024-02-21T10:18:33;9.00;;;5.30;;
68438;SDS011;55421;51.600;5.718;2024-02-21T10:23:44;6.90;;;4.80;;
68438;SDS011;55421;51.600;5.718;2024-02-21T10:26:11;8.60;;;4.90;;
68438;SDS011;55421;51.600;5.718;2024-02-21T10:28:38;7.20;;;4.20;;
68438;SDS011;55421;51.600;5.718;2024-02-21T10:31:21;11.90;;;6.00;;
68438;SDS011;55421;51.600;5.718;2024-02-21T10:34:00;10.00;;;5.20;;
68438;SDS011;55421;51.600;5.718;2024-02-21T10:36:30;11.90;;;5.70;;
68438;SDS011;55421;51.600;5.718;2024-02-21T10:38:56;10.20;;;4.70;;
68438;SDS011;55421;51.600;5.718;2024-02-21T10:41:24;10.90;;;4.60;;
68438;SDS011;55421;51.600;5.718;2024-02-21T10:43:52;8.20;;;4.40;;
68438;SDS011;55421;51.600;5.718;2024-02-21T10:46:24;10.60;;;4.80;;
68438;SDS011;55421;51.600;5.718;2024-02-21T10:49:22;7.60;;;4.10;;
68438;SDS011;55421;51.600;5.718;2024-02-21T10:51:55;8.90;;;4.40;;
68438;SDS011;55421;51.600;5.718;2024-02-21T10:54:48;9.80;;;4.90;;
68438;SDS011;55421;51.600;5.718;2024-02-21T10:57:23;9.10;;;4.60;;
68438;SDS011;55421;51.600;5.718;2024-02-21T10:59:52;9.40;;;4.00;;
68438;SDS011;55421;51.600;5.718;2024-02-21T11:02:21;9.70;;;4.60;;
68438;SDS011;55421;51.600;5.718;2024-02-21T11:04:49;8.80;;;3.80;;
68438;SDS011;55421;51.600;5.718;2024-02-21T11:07:16;7.70;;;4.20;;
68438;SDS011;55421;51.600;5.718;2024-02-21T11:09:51;7.20;;;4.20;;
68438;SDS011;55421;51.600;5.718;2024-02-21T11:12:22;9.20;;;3.70;;
68438;SDS011;55421;51.600;5.718;2024-02-21T11:14:49;10.40;;;4.20;;
68438;SDS011;55421;51.600;5.718;2024-02-21T11:17:17;10.50;;;4.20;;
68438;SDS011;55421;51.600;5.718;2024-02-21T11:19:44;10.00;;;4.00;;
68438;SDS011;55421;51.600;5.718;2024-02-21T11:22:18;8.30;;;4.50;;
68438;SDS011;55421;51.600;5.718;2024-02-21T11:24:48;9.40;;;4.10;;
68438;SDS011;55421;51.600;5.718;2024-02-21T11:27:22;6.20;;;3.60;;
68438;SDS011;55421;51.600;5.718;2024-02-21T11:29:56;7.30;;;4.20;;
68438;SDS011;55421;51.600;5.718;2024-02-21T11:32:25;6.60;;;3.20;;
68438;SDS011;55421;51.600;5.718;2024-02-21T11:34:57;11.50;;;4.00;;
68438;SDS011;55421;51.600;5.718;2024-02-21T11:37:29;7.50;;;3.80;;
68438;SDS011;55421;51.600;5.718;2024-02-21T11:39:57;11.10;;;3.70;;
68438;SDS011;55421;51.600;5.718;2024-02-21T11:42:27;7.60;;;3.70;;
68438;SDS011;55421;51.600;5.718;2024-02-21T11:44:56;7.70;;;4.00;;
68438;SDS011;55421;51.600;5.718;2024-02-21T11:47:24;8.50;;;4.00;;
68438;SDS011;55421;51.600;5.718;2024-02-21T11:49:51;11.00;;;4.20;;
68438;SDS011;55421;51.600;5.718;2024-02-21T11:52:21;5.30;;;3.30;;
68438;SDS011;55421;51.600;5.718;2024-02-21T11:54:51;8.60;;;3.60;;
68438;SDS011;55421;51.600;5.718;2024-02-21T11:57:24;6.20;;;3.40;;
68438;SDS011;55421;51.600;5.718;2024-02-21T11:59:53;6.50;;;3.90;;
68438;SDS011;55421;51.600;5.718;2024-02-21T12:02:22;6.20;;;3.50;;
68438;SDS011;55421;51.600;5.718;2024-02-21T12:04:55;6.80;;;3.40;;
68438;SDS011;55421;51.600;5.718;2024-02-21T12:07:22;6.40;;;3.40;;
68438;SDS011;55421;51.600;5.718;2024-02-21T12:09:50;10.80;;;3.60;;
68438;SDS011;55421;51.600;5.718;2024-02-21T12:12:20;11.10;;;4.10;;
68438;SDS011;55421;51.600;5.718;2024-02-21T12:14:46;6.20;;;3.20;;
68438;SDS011;55421;51.600;5.718;2024-02-21T12:17:13;7.40;;;3.70;;
68438;SDS011;55421;51.600;5.718;2024-02-21T12:19:40;7.80;;;3.30;;
68438;SDS011;55421;51.600;5.718;2024-02-21T12:22:06;9.60;;;3.70;;
68438;SDS011;55421;51.600;5.718;2024-02-21T12:24:34;5.80;;;3.40;;
68438;SDS011;55421;51.600;5.718;2024-02-21T12:27:02;5.30;;;2.70;;
68438;SDS011;55421;51.600;5.718;2024-02-21T12:29:29;7.10;;;3.40;;
68438;SDS011;55421;51.600;5.718;2024-02-21T12:31:56;5.80;;;3.50;;
68438;SDS011;55421;51.600;5.718;2024-02-21T12:34:23;7.30;;;3.40;;
68438;SDS011;55421;51.600;5.718;2024-02-21T12:36:51;9.10;;;3.60;;
68438;SDS011;55421;51.600;5.718;2024-02-21T12:39:18;8.80;;;3.70;;
68438;SDS011;55421;51.600;5.718;2024-02-21T12:41:44;9.20;;;4.30;;
68438;SDS011;55421;51.600;5.718;2024-02-21T12:44:11;7.90;;;3.50;;
68438;SDS011;55421;51.600;5.718;2024-02-21T12:46:38;9.60;;;4.40;;
68438;SDS011;55421;51.600;5.718;2024-02-21T12:49:09;10.70;;;4.00;;
68438;SDS011;55421;51.600;5.718;2024-02-21T12:51:36;10.60;;;3.80;;
68438;SDS011;55421;51.600;5.718;2024-02-21T12:54:04;6.90;;;3.40;;
68438;SDS011;55421;51.600;5.718;2024-02-21T12:56:30;8.20;;;3.20;;
68438;SDS011;55421;51.600;5.718;2024-02-21T12:58:58;8.40;;;3.50;;
68438;SDS011;55421;51.600;5.718;2024-02-21T13:01:25;6.90;;;3.60;;
68438;SDS011;55421;51.600;5.718;2024-02-21T13:03:52;6.40;;;3.60;;
68438;SDS011;55421;51.600;5.718;2024-02-21T13:06:20;6.30;;;3.60;;
68438;SDS011;55421;51.600;5.718;2024-02-21T13:08:47;9.00;;;4.00;;
68438;SDS011;55421;51.600;5.718;2024-02-21T13:11:13;7.80;;;3.80;;
68438;SDS011;55421;51.600;5.718;2024-02-21T13:13:40;8.30;;;3.70;;
68438;SDS011;55421;51.600;5.718;2024-02-21T13:16:07;6.90;;;4.00;;
68438;SDS011;55421;51.600;5.718;2024-02-21T13:18:35;8.00;;;3.50;;
68438;SDS011;55421;51.600;5.718;2024-02-21T13:21:05;15.40;;;4.10;;
68438;SDS011;55421;51.600;5.718;2024-02-21T13:23:32;6.30;;;3.00;;
68438;SDS011;55421;51.600;5.718;2024-02-21T13:25:59;8.60;;;3.40;;
68438;SDS011;55421;51.600;5.718;2024-02-21T13:28:25;5.50;;;2.60;;
68438;SDS011;55421;51.600;5.718;2024-02-21T13:30:52;5.10;;;2.80;;
68438;SDS011;55421;51.600;5.718;2024-02-21T13:33:19;6.20;;;3.30;;
68438;SDS011;55421;51.600;5.718;2024-02-21T13:35:46;4.90;;;2.80;;
68438;SDS011;55421;51.600;5.718;2024-02-21T13:38:12;7.30;;;2.50;;
68438;SDS011;55421;51.600;5.718;2024-02-21T13:40:40;3.70;;;2.50;;
68438;SDS011;55421;51.600;5.718;2024-02-21T13:43:26;5.20;;;2.90;;
68438;SDS011;55421;51.600;5.718;2024-02-21T13:45:58;2.80;;;2.10;;
68438;SDS011;55421;51.600;5.718;2024-02-21T13:48:28;5.20;;;2.90;;
68438;SDS011;55421;51.600;5.718;2024-02-21T13:50:56;4.80;;;2.30;;
68438;SDS011;55421;51.600;5.718;2024-02-21T13:53:23;4.30;;;2.30;;
68438;SDS011;55421;51.600;5.718;2024-02-21T13:55:52;10.60;;;2.90;;
68438;SDS011;55421;51.600;5.718;2024-02-21T13:58:18;4.70;;;2.60;;
68438;SDS011;55421;51.600;5.718;2024-02-21T14:00:49;5.50;;;2.70;;
68438;SDS011;55421;51.600;5.718;2024-02-21T14:05:46;5.20;;;3.20;;
68438;SDS011;55421;51.600;5.718;2024-02-21T14:08:14;4.30;;;2.50;;
68438;SDS011;55421;51.600;5.718;2024-02-21T14:10:41;9.70;;;3.00;;
68438;SDS011;55421;51.600;5.718;2024-02-21T14:13:08;7.20;;;2.90;;
68438;SDS011;55421;51.600;5.718;2024-02-21T14:15:34;5.20;;;2.80;;
68438;SDS011;55421;51.600;5.718;2024-02-21T14:18:03;3.60;;;2.30;;
68438;SDS011;55421;51.600;5.718;2024-02-21T14:20:32;4.70;;;2.40;;
68438;SDS011;55421;51.600;5.718;2024-02-21T14:22:58;6.90;;;2.80;;
68438;SDS011;55421;51.600;5.718;2024-02-21T14:25:25;5.40;;;2.60;;
68438;SDS011;55421;51.600;5.718;2024-02-21T14:27:51;5.70;;;2.60;;
68438;SDS011;55421;51.600;5.718;2024-02-21T14:30:18;5.80;;;2.80;;
68438;SDS011;55421;51.600;5.718;2024-02-21T14:32:44;6.50;;;2.70;;
68438;SDS011;55421;51.600;5.718;2024-02-21T14:35:12;7.80;;;3.40;;
68438;SDS011;55421;51.600;5.718;2024-02-21T14:37:38;5.90;;;3.00;;
68438;SDS011;55421;51.600;5.718;2024-02-21T14:40:05;6.90;;;2.70;;
68438;SDS011;55421;51.600;5.718;2024-02-21T14:42:32;9.50;;;2.60;;
68438;SDS011;55421;51.600;5.718;2024-02-21T14:45:00;3.80;;;2.60;;
68438;SDS011;55421;51.600;5.718;2024-02-21T14:47:33;6.00;;;2.50;;
68438;SDS011;55421;51.600;5.718;2024-02-21T14:50:01;5.60;;;2.80;;
68438;SDS011;55421;51.600;5.718;2024-02-21T14:52:28;4.00;;;2.40;;
68438;SDS011;55421;51.600;5.718;2024-02-21T14:54:55;8.20;;;2.70;;
68438;SDS011;55421;51.600;5.718;2024-02-21T14:57:22;8.90;;;3.00;;